sensor_id;sensor_type;location;lat;lon;timestamp;P1;durP1;ratioP1;P2;durP2;ratioP2
53775;SDS011;44276;49.534;6.378;2024-01-10T00:00:42;10.52;;;6.10;;
53775;SDS011;44276;49.534;6.378;2024-01-10T00:03:10;10.98;;;5.60;;
53775;SDS011;44276;49.534;6.378;2024-01-10T00:05:38;8.90;;;4.30;;
53775;SDS011;44276;49.534;6.378;2024-01-10T00:08:08;9.23;;;4.32;;
53775;SDS011;44276;49.534;6.378;2024-01-10T00:10:36;5.20;;;2.58;;
53775;SDS011;44276;49.534;6.378;2024-01-10T00:13:05;8.65;;;4.18;;
53775;SDS011;44276;49.534;6.378;2024-01-10T00:15:33;8.75;;;3.85;;
53775;SDS011;44276;49.534;6.378;2024-01-10T00:18:02;13.23;;;3.45;;
53775;SDS011;44276;49.534;6.378;2024-01-10T00:20:30;7.63;;;2.72;;
53775;SDS011;44276;49.534;6.378;2024-01-10T00:22:59;14.38;;;3.83;;
53775;SDS011;44276;49.534;6.378;2024-01-10T00:25:28;11.70;;;3.45;;
53775;SDS011;44276;49.534;6.378;2024-01-10T00:27:56;6.53;;;3.38;;
53775;SDS011;44276;49.534;6.378;2024-01-10T00:30:25;6.72;;;3.28;;
53775;SDS011;44276;49.534;6.378;2024-01-10T00:32:54;8.68;;;4.35;;
53775;SDS011;44276;49.534;6.378;2024-01-10T00:35:22;5.13;;;2.28;;
53775;SDS011;44276;49.534;6.378;2024-01-10T00:37:50;7.95;;;2.78;;
53775;SDS011;44276;49.534;6.378;2024-01-10T00:40:18;5.07;;;3.15;;
53775;SDS011;44276;49.534;6.378;2024-01-10T00:42:48;10.45;;;3.42;;
53775;SDS011;44276;49.534;6.378;2024-01-10T00:45:17;7.30;;;2.67;;
53775;SDS011;44276;49.534;6.378;2024-01-10T00:47:45;11.80;;;3.58;;
53775;SDS011;44276;49.534;6.378;2024-01-10T00:50:13;4.10;;;2.83;;
53775;SDS011;44276;49.534;6.378;2024-01-10T00:52:43;8.73;;;2.17;;
53775;SDS011;44276;49.534;6.378;2024-01-10T00:55:12;8.98;;;3.70;;
53775;SDS011;44276;49.534;6.378;2024-01-10T00:57:40;8.13;;;3.20;;
53775;SDS011;44276;49.534;6.378;2024-01-10T01:00:11;6.63;;;4.03;;
53775;SDS011;44276;49.534;6.378;2024-01-10T01:02:40;9.27;;;2.80;;
53775;SDS011;44276;49.534;6.378;2024-01-10T01:05:08;8.57;;;2.70;;
53775;SDS011;44276;49.534;6.378;2024-01-10T01:07:37;5.65;;;2.30;;
53775;SDS011;44276;49.534;6.378;2024-01-10T01:10:05;5.85;;;2.10;;
53775;SDS011;44276;49.534;6.378;2024-01-10T01:12:35;9.43;;;3.35;;
53775;SDS011;44276;49.534;6.378;2024-01-10T01:15:04;7.75;;;3.10;;
53775;SDS011;44276;49.534;6.378;2024-01-10T01:17:35;6.40;;;3.03;;
53775;SDS011;44276;49.534;6.378;2024-01-10T01:20:04;8.52;;;3.55;;
53775;SDS011;44276;49.534;6.378;2024-01-10T01:22:34;7.60;;;4.10;;
53775;SDS011;44276;49.534;6.378;2024-01-10T01:25:03;3.92;;;1.85;;
53775;SDS011;44276;49.534;6.378;2024-01-10T01:27:32;4.93;;;3.17;;
53775;SDS011;44276;49.534;6.378;2024-01-10T01:30:01;11.48;;;3.03;;
53775;SDS011;44276;49.534;6.378;2024-01-10T01:32:30;7.05;;;2.65;;
53775;SDS011;44276;49.534;6.378;2024-01-10T01:34:59;5.10;;;2.80;;
53775;SDS011;44276;49.534;6.378;2024-01-10T01:37:30;11.80;;;3.55;;
53775;SDS011;44276;49.534;6.378;2024-01-10T01:39:58;9.88;;;3.83;;
53775;SDS011;44276;49.534;6.378;2024-01-10T01:42:27;7.68;;;3.67;;
53775;SDS011;44276;49.534;6.378;2024-01-10T01:44:55;8.50;;;3.17;;
53775;SDS011;44276;49.534;6.378;2024-01-10T01:47:24;5.18;;;2.17;;
53775;SDS011;44276;49.534;6.378;2024-01-10T01:49:53;8.70;;;3.65;;
53775;SDS011;44276;49.534;6.378;2024-01-10T01:52:23;5.03;;;2.63;;
53775;SDS011;44276;49.534;6.378;2024-01-10T01:54:52;6.65;;;2.65;;
53775;SDS011;44276;49.534;6.378;2024-01-10T01:57:20;13.23;;;4.78;;
53775;SDS011;44276;49.534;6.378;2024-01-10T01:59:49;5.30;;;3.05;;
53775;SDS011;44276;49.534;6.378;2024-01-10T02:02:18;7.72;;;3.15;;
53775;SDS011;44276;49.534;6.378;2024-01-10T02:04:49;11.70;;;3.83;;
53775;SDS011;44276;49.534;6.378;2024-01-10T02:07:18;6.53;;;3.45;;
53775;SDS011;44276;49.534;6.378;2024-01-10T02:09:48;13.20;;;5.85;;
53775;SDS011;44276;49.534;6.378;2024-01-10T02:12:16;9.32;;;3.35;;
53775;SDS011;44276;49.534;6.378;2024-01-10T02:14:45;3.83;;;2.92;;
53775;SDS011;44276;49.534;6.378;2024-01-10T02:17:13;4.45;;;2.45;;
53775;SDS011;44276;49.534;6.378;2024-01-10T02:19:43;10.13;;;3.78;;
53775;SDS011;44276;49.534;6.378;2024-01-10T02:22:11;5.15;;;3.08;;
53775;SDS011;44276;49.534;6.378;2024-01-10T02:24:39;4.97;;;2.72;;
53775;SDS011;44276;49.534;6.378;2024-01-10T02:27:09;8.32;;;3.13;;
53775;SDS011;44276;49.534;6.378;2024-01-10T02:29:38;4.13;;;2.35;;
53775;SDS011;44276;49.534;6.378;2024-01-10T02:32:06;9.07;;;3.97;;
53775;SDS011;44276;49.534;6.378;2024-01-10T02:34:35;8.43;;;3.45;;
53775;SDS011;44276;49.534;6.378;2024-01-10T02:37:03;4.07;;;3.03;;
53775;SDS011;44276;49.534;6.378;2024-01-10T02:39:31;6.90;;;2.80;;
53775;SDS011;44276;49.534;6.378;2024-01-10T02:42:00;5.50;;;3.17;;
53775;SDS011;44276;49.534;6.378;2024-01-10T02:44:29;8.05;;;2.63;;
53775;SDS011;44276;49.534;6.378;2024-01-10T02:46:57;6.13;;;3.53;;
53775;SDS011;44276;49.534;6.378;2024-01-10T02:49:26;13.18;;;3.28;;
53775;SDS011;44276;49.534;6.378;2024-01-10T02:51:55;6.75;;;3.10;;
53775;SDS011;44276;49.534;6.378;2024-01-10T02:54:23;7.43;;;3.65;;
53775;SDS011;44276;49.534;6.378;2024-01-10T02:56:51;8.38;;;2.97;;
53775;SDS011;44276;49.534;6.378;2024-01-10T02:59:20;4.82;;;2.53;;
53775;SDS011;44276;49.534;6.378;2024-01-10T03:01:49;11.02;;;4.00;;
53775;SDS011;44276;49.534;6.378;2024-01-10T03:04:18;5.90;;;3.28;;
53775;SDS011;44276;49.534;6.378;2024-01-10T03:06:46;5.55;;;3.15;;
53775;SDS011;44276;49.534;6.378;2024-01-10T03:09:14;5.00;;;2.90;;
53775;SDS011;44276;49.534;6.378;2024-01-10T03:11:44;4.28;;;1.70;;
53775;SDS011;44276;49.534;6.378;2024-01-10T03:14:12;9.30;;;2.97;;
53775;SDS011;44276;49.534;6.378;2024-01-10T03:16:40;9.32;;;3.35;;
53775;SDS011;44276;49.534;6.378;2024-01-10T03:19:10;8.35;;;2.53;;
53775;SDS011;44276;49.534;6.378;2024-01-10T03:21:39;6.72;;;3.17;;
53775;SDS011;44276;49.534;6.378;2024-01-10T03:24:08;8.07;;;3.75;;
53775;SDS011;44276;49.534;6.378;2024-01-10T03:26:36;8.18;;;2.97;;
53775;SDS011;44276;49.534;6.378;2024-01-10T03:29:05;5.07;;;2.47;;
53775;SDS011;44276;49.534;6.378;2024-01-10T03:31:33;8.45;;;3.45;;
53775;SDS011;44276;49.534;6.378;2024-01-10T03:34:03;13.15;;;4.57;;
53775;SDS011;44276;49.534;6.378;2024-01-10T03:36:33;5.43;;;2.90;;
53775;SDS011;44276;49.534;6.378;2024-01-10T03:39:02;7.07;;;4.60;;
53775;SDS011;44276;49.534;6.378;2024-01-10T03:41:30;8.80;;;3.33;;
53775;SDS011;44276;49.534;6.378;2024-01-10T03:43:59;7.95;;;3.67;;
53775;SDS011;44276;49.534;6.378;2024-01-10T03:46:27;8.27;;;3.60;;
53775;SDS011;44276;49.534;6.378;2024-01-10T03:48:56;6.03;;;3.65;;
53775;SDS011;44276;49.534;6.378;2024-01-10T03:51:24;7.95;;;3.42;;
53775;SDS011;44276;49.534;6.378;2024-01-10T03:53:53;11.05;;;4.43;;
53775;SDS011;44276;49.534;6.378;2024-01-10T03:56:22;5.30;;;3.47;;
53775;SDS011;44276;49.534;6.378;2024-01-10T03:58:50;6.88;;;4.53;;
53775;SDS011;44276;49.534;6.378;2024-01-10T04:01:21;6.10;;;3.65;;
53775;SDS011;44276;49.534;6.378;2024-01-10T04:03:50;10.27;;;3.90;;
53775;SDS011;44276;49.534;6.378;2024-01-10T04:06:19;9.40;;;4.45;;
53775;SDS011;44276;49.534;6.378;2024-01-10T04:08:47;6.47;;;2.20;;
53775;SDS011;44276;49.534;6.378;2024-01-10T04:11:16;9.38;;;3.40;;
53775;SDS011;44276;49.534;6.378;2024-01-10T04:13:45;8.50;;;3.70;;
53775;SDS011;44276;49.534;6.378;2024-01-10T04:16:13;10.77;;;4.05;;
53775;SDS011;44276;49.534;6.378;2024-01-10T04:18:41;3.97;;;2.80;;
53775;SDS011;44276;49.534;6.378;2024-01-10T04:21:10;10.48;;;3.67;;
53775;SDS011;44276;49.534;6.378;2024-01-10T04:23:38;6.97;;;2.90;;
53775;SDS011;44276;49.534;6.378;2024-01-10T04:26:07;8.13;;;5.03;;
53775;SDS011;44276;49.534;6.378;2024-01-10T04:28:36;10.02;;;4.60;;
53775;SDS011;44276;49.534;6.378;2024-01-10T04:31:06;12.75;;;4.07;;
53775;SDS011;44276;49.534;6.378;2024-01-10T04:33:35;10.52;;;4.75;;
53775;SDS011;44276;49.534;6.378;2024-01-10T04:36:03;13.95;;;3.10;;
53775;SDS011;44276;49.534;6.378;2024-01-10T04:38:33;13.20;;;3.30;;
53775;SDS011;44276;49.534;6.378;2024-01-10T04:41:01;7.68;;;3.70;;
53775;SDS011;44276;49.534;6.378;2024-01-10T04:43:30;15.80;;;6.05;;
53775;SDS011;44276;49.534;6.378;2024-01-10T04:45:59;17.17;;;6.63;;
53775;SDS011;44276;49.534;6.378;2024-01-10T04:48:28;18.33;;;7.22;;
53775;SDS011;44276;49.534;6.378;2024-01-10T04:50:56;31.85;;;11.15;;
53775;SDS011;44276;49.534;6.378;2024-01-10T04:53:24;14.00;;;5.07;;
53775;SDS011;44276;49.534;6.378;2024-01-10T04:55:53;8.88;;;4.72;;
53775;SDS011;44276;49.534;6.378;2024-01-10T04:58:21;11.80;;;4.55;;
53775;SDS011;44276;49.534;6.378;2024-01-10T05:00:49;8.55;;;4.07;;
53775;SDS011;44276;49.534;6.378;2024-01-10T05:03:19;6.72;;;3.85;;
53775;SDS011;44276;49.534;6.378;2024-01-10T05:05:48;8.18;;;4.03;;
53775;SDS011;44276;49.534;6.378;2024-01-10T05:08:16;13.45;;;4.20;;
53775;SDS011;44276;49.534;6.378;2024-01-10T05:10:47;9.18;;;4.13;;
53775;SDS011;44276;49.534;6.378;2024-01-10T05:13:15;8.48;;;4.40;;
53775;SDS011;44276;49.534;6.378;2024-01-10T05:15:43;16.70;;;4.55;;
53775;SDS011;44276;49.534;6.378;2024-01-10T05:18:12;11.32;;;4.50;;
53775;SDS011;44276;49.534;6.378;2024-01-10T05:20:42;14.75;;;4.88;;
53775;SDS011;44276;49.534;6.378;2024-01-10T05:23:10;8.73;;;4.18;;
53775;SDS011;44276;49.534;6.378;2024-01-10T05:25:38;12.60;;;5.40;;
53775;SDS011;44276;49.534;6.378;2024-01-10T05:28:06;27.60;;;10.70;;
53775;SDS011;44276;49.534;6.378;2024-01-10T05:30:35;19.65;;;7.20;;
53775;SDS011;44276;49.534;6.378;2024-01-10T05:33:03;22.55;;;7.18;;
53775;SDS011;44276;49.534;6.378;2024-01-10T05:35:32;22.98;;;7.82;;
53775;SDS011;44276;49.534;6.378;2024-01-10T05:38:03;22.00;;;9.63;;
53775;SDS011;44276;49.534;6.378;2024-01-10T05:40:32;22.95;;;8.98;;
53775;SDS011;44276;49.534;6.378;2024-01-10T05:43:00;17.85;;;7.85;;
53775;SDS011;44276;49.534;6.378;2024-01-10T05:45:28;9.77;;;5.75;;
53775;SDS011;44276;49.534;6.378;2024-01-10T05:47:57;14.75;;;6.40;;
53775;SDS011;44276;49.534;6.378;2024-01-10T05:50:26;18.65;;;8.25;;
53775;SDS011;44276;49.534;6.378;2024-01-10T05:52:55;24.02;;;7.78;;
53775;SDS011;44276;49.534;6.378;2024-01-10T05:55:25;17.40;;;6.57;;
53775;SDS011;44276;49.534;6.378;2024-01-10T05:57:53;12.57;;;6.00;;
53775;SDS011;44276;49.534;6.378;2024-01-10T06:00:22;11.23;;;4.07;;
53775;SDS011;44276;49.534;6.378;2024-01-10T06:02:50;14.77;;;5.38;;
53775;SDS011;44276;49.534;6.378;2024-01-10T06:05:19;11.90;;;4.15;;
53775;SDS011;44276;49.534;6.378;2024-01-10T06:07:48;10.57;;;4.85;;
53775;SDS011;44276;49.534;6.378;2024-01-10T06:10:16;13.02;;;5.53;;
53775;SDS011;44276;49.534;6.378;2024-01-10T06:12:46;9.23;;;4.97;;
53775;SDS011;44276;49.534;6.378;2024-01-10T06:15:15;6.43;;;4.60;;
53775;SDS011;44276;49.534;6.378;2024-01-10T06:17:43;10.13;;;4.22;;
53775;SDS011;44276;49.534;6.378;2024-01-10T06:20:12;17.10;;;5.22;;
53775;SDS011;44276;49.534;6.378;2024-01-10T06:22:40;10.48;;;4.15;;
53775;SDS011;44276;49.534;6.378;2024-01-10T06:25:09;9.18;;;3.90;;
53775;SDS011;44276;49.534;6.378;2024-01-10T06:27:37;9.48;;;4.38;;
53775;SDS011;44276;49.534;6.378;2024-01-10T06:30:08;16.17;;;5.45;;
53775;SDS011;44276;49.534;6.378;2024-01-10T06:32:37;8.93;;;3.78;;
53775;SDS011;44276;49.534;6.378;2024-01-10T06:35:05;10.95;;;4.40;;
53775;SDS011;44276;49.534;6.378;2024-01-10T06:37:37;17.45;;;3.75;;
53775;SDS011;44276;49.534;6.378;2024-01-10T06:40:06;10.60;;;4.78;;
53775;SDS011;44276;49.534;6.378;2024-01-10T06:42:36;10.32;;;4.82;;
53775;SDS011;44276;49.534;6.378;2024-01-10T06:45:05;10.20;;;3.92;;
53775;SDS011;44276;49.534;6.378;2024-01-10T06:47:38;15.88;;;3.97;;
53775;SDS011;44276;49.534;6.378;2024-01-10T06:50:08;14.80;;;5.47;;
53775;SDS011;44276;49.534;6.378;2024-01-10T06:52:37;14.02;;;3.20;;
53775;SDS011;44276;49.534;6.378;2024-01-10T06:55:07;14.40;;;5.45;;
53775;SDS011;44276;49.534;6.378;2024-01-10T06:57:35;11.90;;;4.38;;
53775;SDS011;44276;49.534;6.378;2024-01-10T07:00:04;10.13;;;5.68;;
53775;SDS011;44276;49.534;6.378;2024-01-10T07:02:37;8.27;;;3.88;;
53775;SDS011;44276;49.534;6.378;2024-01-10T07:05:07;8.90;;;3.60;;
53775;SDS011;44276;49.534;6.378;2024-01-10T07:07:36;9.20;;;4.63;;
53775;SDS011;44276;49.534;6.378;2024-01-10T07:10:05;8.13;;;4.25;;
53775;SDS011;44276;49.534;6.378;2024-01-10T07:12:34;15.57;;;4.45;;
53775;SDS011;44276;49.534;6.378;2024-01-10T07:15:02;11.85;;;4.40;;
53775;SDS011;44276;49.534;6.378;2024-01-10T07:17:33;8.45;;;4.30;;
53775;SDS011;44276;49.534;6.378;2024-01-10T07:20:01;12.82;;;4.85;;
53775;SDS011;44276;49.534;6.378;2024-01-10T07:22:30;9.02;;;4.07;;
53775;SDS011;44276;49.534;6.378;2024-01-10T07:25:01;19.60;;;4.35;;
53775;SDS011;44276;49.534;6.378;2024-01-10T07:27:31;11.05;;;4.53;;
53775;SDS011;44276;49.534;6.378;2024-01-10T07:30:00;17.55;;;5.20;;
53775;SDS011;44276;49.534;6.378;2024-01-10T07:32:28;13.15;;;4.97;;
53775;SDS011;44276;49.534;6.378;2024-01-10T07:34:57;11.38;;;4.10;;
53775;SDS011;44276;49.534;6.378;2024-01-10T07:37:26;11.65;;;5.32;;
53775;SDS011;44276;49.534;6.378;2024-01-10T07:39:54;10.25;;;4.50;;
53775;SDS011;44276;49.534;6.378;2024-01-10T07:42:23;12.73;;;4.88;;
53775;SDS011;44276;49.534;6.378;2024-01-10T07:44:50;8.88;;;4.97;;
53775;SDS011;44276;49.534;6.378;2024-01-10T07:47:20;20.25;;;6.28;;
53775;SDS011;44276;49.534;6.378;2024-01-10T07:49:48;18.55;;;5.03;;
53775;SDS011;44276;49.534;6.378;2024-01-10T07:52:18;8.32;;;4.95;;
53775;SDS011;44276;49.534;6.378;2024-01-10T07:54:50;25.27;;;5.90;;
53775;SDS011;44276;49.534;6.378;2024-01-10T07:57:18;11.65;;;4.10;;
53775;SDS011;44276;49.534;6.378;2024-01-10T07:59:47;11.27;;;4.28;;
53775;SDS011;44276;49.534;6.378;2024-01-10T08:02:15;15.93;;;6.53;;
53775;SDS011;44276;49.534;6.378;2024-01-10T08:04:43;12.48;;;4.95;;
53775;SDS011;44276;49.534;6.378;2024-01-10T08:07:11;13.38;;;5.13;;
53775;SDS011;44276;49.534;6.378;2024-01-10T08:09:41;13.77;;;4.82;;
53775;SDS011;44276;49.534;6.378;2024-01-10T08:12:10;17.65;;;5.05;;
53775;SDS011;44276;49.534;6.378;2024-01-10T08:14:40;14.75;;;6.32;;
53775;SDS011;44276;49.534;6.378;2024-01-10T08:17:12;13.48;;;5.55;;
53775;SDS011;44276;49.534;6.378;2024-01-10T08:19:40;13.13;;;6.30;;
53775;SDS011;44276;49.534;6.378;2024-01-10T08:22:09;12.48;;;5.93;;
53775;SDS011;44276;49.534;6.378;2024-01-10T08:24:38;13.07;;;5.10;;
53775;SDS011;44276;49.534;6.378;2024-01-10T08:27:08;11.10;;;5.05;;
53775;SDS011;44276;49.534;6.378;2024-01-10T08:29:36;15.48;;;6.38;;
53775;SDS011;44276;49.534;6.378;2024-01-10T08:32:05;14.73;;;6.45;;
53775;SDS011;44276;49.534;6.378;2024-01-10T08:34:34;13.32;;;5.80;;
53775;SDS011;44276;49.534;6.378;2024-01-10T08:37:02;11.63;;;5.28;;
53775;SDS011;44276;49.534;6.378;2024-01-10T08:39:30;15.57;;;5.75;;
53775;SDS011;44276;49.534;6.378;2024-01-10T08:41:59;18.20;;;7.43;;
53775;SDS011;44276;49.534;6.378;2024-01-10T08:44:28;13.68;;;6.32;;
53775;SDS011;44276;49.534;6.378;2024-01-10T08:46:57;13.57;;;5.57;;
53775;SDS011;44276;49.534;6.378;2024-01-10T08:49:25;15.85;;;6.47;;
53775;SDS011;44276;49.534;6.378;2024-01-10T08:51:53;14.40;;;5.35;;
53775;SDS011;44276;49.534;6.378;2024-01-10T08:54:22;19.17;;;6.70;;
53775;SDS011;44276;49.534;6.378;2024-01-10T08:56:51;17.05;;;6.85;;
53775;SDS011;44276;49.534;6.378;2024-01-10T08:59:19;14.45;;;6.35;;
53775;SDS011;44276;49.534;6.378;2024-01-10T09:01:49;17.00;;;7.28;;
53775;SDS011;44276;49.534;6.378;2024-01-10T09:04:18;17.75;;;6.68;;
53775;SDS011;44276;49.534;6.378;2024-01-10T09:06:46;14.57;;;6.47;;
53775;SDS011;44276;49.534;6.378;2024-01-10T09:09:15;13.65;;;6.40;;
53775;SDS011;44276;49.534;6.378;2024-01-10T09:11:46;16.15;;;7.30;;
53775;SDS011;44276;49.534;6.378;2024-01-10T09:14:15;13.63;;;6.78;;
53775;SDS011;44276;49.534;6.378;2024-01-10T09:16:44;16.42;;;8.20;;
53775;SDS011;44276;49.534;6.378;2024-01-10T09:19:13;13.90;;;7.00;;
53775;SDS011;44276;49.534;6.378;2024-01-10T09:21:42;19.95;;;7.22;;
53775;SDS011;44276;49.534;6.378;2024-01-10T09:24:10;20.83;;;8.27;;
53775;SDS011;44276;49.534;6.378;2024-01-10T09:26:54;16.80;;;7.78;;
53775;SDS011;44276;49.534;6.378;2024-01-10T09:29:23;15.85;;;7.00;;
53775;SDS011;44276;49.534;6.378;2024-01-10T09:31:53;20.40;;;8.07;;
53775;SDS011;44276;49.534;6.378;2024-01-10T09:34:24;16.98;;;7.38;;
53775;SDS011;44276;49.534;6.378;2024-01-10T09:36:52;18.58;;;8.52;;
53775;SDS011;44276;49.534;6.378;2024-01-10T09:39:20;17.27;;;7.75;;
53775;SDS011;44276;49.534;6.378;2024-01-10T09:41:49;16.90;;;8.40;;
53775;SDS011;44276;49.534;6.378;2024-01-10T09:44:18;17.02;;;8.32;;
53775;SDS011;44276;49.534;6.378;2024-01-10T09:46:50;17.85;;;8.27;;
53775;SDS011;44276;49.534;6.378;2024-01-10T09:49:21;18.63;;;8.70;;
53775;SDS011;44276;49.534;6.378;2024-01-10T09:51:53;20.25;;;9.52;;
53775;SDS011;44276;49.534;6.378;2024-01-10T09:54:28;22.52;;;9.50;;
53775;SDS011;44276;49.534;6.378;2024-01-10T09:56:58;17.77;;;8.15;;
53775;SDS011;44276;49.534;6.378;2024-01-10T09:59:26;17.63;;;9.25;;
53775;SDS011;44276;49.534;6.378;2024-01-10T10:01:54;19.00;;;8.27;;
53775;SDS011;44276;49.534;6.378;2024-01-10T10:04:27;17.98;;;9.05;;
53775;SDS011;44276;49.534;6.378;2024-01-10T10:06:59;20.45;;;9.20;;
53775;SDS011;44276;49.534;6.378;2024-01-10T10:09:29;20.70;;;8.52;;
53775;SDS011;44276;49.534;6.378;2024-01-10T10:11:58;17.02;;;8.88;;
53775;SDS011;44276;49.534;6.378;2024-01-10T10:14:28;18.08;;;9.50;;
53775;SDS011;44276;49.534;6.378;2024-01-10T10:17:00;20.73;;;9.40;;
53775;SDS011;44276;49.534;6.378;2024-01-10T10:19:44;16.75;;;8.10;;
53775;SDS011;44276;49.534;6.378;2024-01-10T10:22:12;18.23;;;7.82;;
53775;SDS011;44276;49.534;6.378;2024-01-10T10:24:41;17.13;;;7.68;;
53775;SDS011;44276;49.534;6.378;2024-01-10T10:27:11;18.77;;;8.55;;
53775;SDS011;44276;49.534;6.378;2024-01-10T10:29:41;13.18;;;7.70;;
53775;SDS011;44276;49.534;6.378;2024-01-10T10:32:13;20.48;;;7.53;;
53775;SDS011;44276;49.534;6.378;2024-01-10T10:34:46;20.80;;;8.45;;
53775;SDS011;44276;49.534;6.378;2024-01-10T10:37:14;18.52;;;8.60;;
53775;SDS011;44276;49.534;6.378;2024-01-10T10:39:43;16.35;;;8.90;;
53775;SDS011;44276;49.534;6.378;2024-01-10T10:42:11;19.30;;;9.90;;
53775;SDS011;44276;49.534;6.378;2024-01-10T10:44:42;17.27;;;8.90;;
53775;SDS011;44276;49.534;6.378;2024-01-10T10:47:12;17.10;;;9.43;;
53775;SDS011;44276;49.534;6.378;2024-01-10T10:49:47;16.17;;;8.93;;
53775;SDS011;44276;49.534;6.378;2024-01-10T10:52:21;21.30;;;9.65;;
53775;SDS011;44276;49.534;6.378;2024-01-10T10:54:51;18.52;;;9.68;;
53775;SDS011;44276;49.534;6.378;2024-01-10T10:57:23;19.27;;;10.15;;
53775;SDS011;44276;49.534;6.378;2024-01-10T10:59:54;15.93;;;10.00;;
53775;SDS011;44276;49.534;6.378;2024-01-10T11:02:24;16.38;;;8.40;;
53775;SDS011;44276;49.534;6.378;2024-01-10T11:04:58;18.85;;;9.02;;
53775;SDS011;44276;49.534;6.378;2024-01-10T11:07:30;23.30;;;11.55;;
53775;SDS011;44276;49.534;6.378;2024-01-10T11:09:58;22.38;;;9.40;;
53775;SDS011;44276;49.534;6.378;2024-01-10T11:12:32;16.35;;;8.98;;
53775;SDS011;44276;49.534;6.378;2024-01-10T11:15:24;16.90;;;8.73;;
53775;SDS011;44276;49.534;6.378;2024-01-10T11:21:21;19.35;;;9.13;;
53775;SDS011;44276;49.534;6.378;2024-01-10T11:24:04;17.70;;;9.13;;
53775;SDS011;44276;49.534;6.378;2024-01-10T11:26:36;17.02;;;8.90;;
53775;SDS011;44276;49.534;6.378;2024-01-10T11:29:05;16.02;;;8.73;;
53775;SDS011;44276;49.534;6.378;2024-01-10T11:31:33;18.45;;;8.38;;
53775;SDS011;44276;49.534;6.378;2024-01-10T11:34:01;24.25;;;9.45;;
53775;SDS011;44276;49.534;6.378;2024-01-10T11:36:31;16.25;;;8.27;;
53775;SDS011;44276;49.534;6.378;2024-01-10T11:39:02;20.27;;;9.02;;
53775;SDS011;44276;49.534;6.378;2024-01-10T11:41:33;17.70;;;8.50;;
53775;SDS011;44276;49.534;6.378;2024-01-10T11:46:55;14.65;;;7.53;;
53775;SDS011;44276;49.534;6.378;2024-01-10T11:49:25;16.02;;;8.93;;
53775;SDS011;44276;49.534;6.378;2024-01-10T11:51:55;17.77;;;8.45;;
53775;SDS011;44276;49.534;6.378;2024-01-10T11:54:36;16.35;;;8.25;;
53775;SDS011;44276;49.534;6.378;2024-01-10T11:57:13;19.05;;;9.23;;
53775;SDS011;44276;49.534;6.378;2024-01-10T11:59:47;12.45;;;7.30;;
53775;SDS011;44276;49.534;6.378;2024-01-10T12:02:20;22.20;;;8.40;;
53775;SDS011;44276;49.534;6.378;2024-01-10T12:04:51;20.27;;;8.30;;
53775;SDS011;44276;49.534;6.378;2024-01-10T12:07:22;17.98;;;9.25;;
53775;SDS011;44276;49.534;6.378;2024-01-10T12:09:52;24.20;;;8.73;;
53775;SDS011;44276;49.534;6.378;2024-01-10T12:12:21;17.70;;;7.85;;
53775;SDS011;44276;49.534;6.378;2024-01-10T12:14:50;16.67;;;8.82;;
53775;SDS011;44276;49.534;6.378;2024-01-10T12:17:18;17.50;;;8.35;;
53775;SDS011;44276;49.534;6.378;2024-01-10T12:19:47;18.65;;;9.63;;
53775;SDS011;44276;49.534;6.378;2024-01-10T12:22:15;17.30;;;8.40;;
53775;SDS011;44276;49.534;6.378;2024-01-10T12:24:46;19.65;;;9.77;;
53775;SDS011;44276;49.534;6.378;2024-01-10T12:27:19;19.55;;;8.82;;
53775;SDS011;44276;49.534;6.378;2024-01-10T12:29:49;20.25;;;8.63;;
53775;SDS011;44276;49.534;6.378;2024-01-10T12:32:20;15.38;;;6.88;;
53775;SDS011;44276;49.534;6.378;2024-01-10T12:34:54;15.82;;;7.95;;
53775;SDS011;44276;49.534;6.378;2024-01-10T12:37:27;12.75;;;7.18;;
53775;SDS011;44276;49.534;6.378;2024-01-10T12:39:57;25.60;;;8.05;;
53775;SDS011;44276;49.534;6.378;2024-01-10T12:42:26;23.63;;;9.52;;
53775;SDS011;44276;49.534;6.378;2024-01-10T12:44:55;15.93;;;9.10;;
53775;SDS011;44276;49.534;6.378;2024-01-10T12:47:24;18.33;;;9.00;;
53775;SDS011;44276;49.534;6.378;2024-01-10T12:49:53;13.68;;;7.15;;
53775;SDS011;44276;49.534;6.378;2024-01-10T12:52:22;20.55;;;9.20;;
53775;SDS011;44276;49.534;6.378;2024-01-10T12:54:51;20.38;;;9.02;;
53775;SDS011;44276;49.534;6.378;2024-01-10T12:57:22;18.85;;;8.57;;
53775;SDS011;44276;49.534;6.378;2024-01-10T12:59:50;16.80;;;7.80;;
53775;SDS011;44276;49.534;6.378;2024-01-10T13:02:19;24.92;;;9.63;;
53775;SDS011;44276;49.534;6.378;2024-01-10T13:04:48;22.30;;;9.80;;
53775;SDS011;44276;49.534;6.378;2024-01-10T13:07:16;17.23;;;9.00;;
53775;SDS011;44276;49.534;6.378;2024-01-10T13:09:45;20.30;;;8.32;;
53775;SDS011;44276;49.534;6.378;2024-01-10T13:12:13;20.20;;;8.65;;
53775;SDS011;44276;49.534;6.378;2024-01-10T13:14:42;19.95;;;8.70;;
53775;SDS011;44276;49.534;6.378;2024-01-10T13:17:11;19.88;;;9.20;;
53775;SDS011;44276;49.534;6.378;2024-01-10T13:19:39;22.52;;;8.15;;
53775;SDS011;44276;49.534;6.378;2024-01-10T13:22:10;18.73;;;8.45;;
53775;SDS011;44276;49.534;6.378;2024-01-10T13:24:40;17.02;;;8.52;;
53775;SDS011;44276;49.534;6.378;2024-01-10T13:27:08;16.45;;;8.90;;
53775;SDS011;44276;49.534;6.378;2024-01-10T13:29:37;17.23;;;7.65;;
53775;SDS011;44276;49.534;6.378;2024-01-10T13:32:07;18.98;;;9.35;;
53775;SDS011;44276;49.534;6.378;2024-01-10T13:34:37;13.35;;;6.90;;
53775;SDS011;44276;49.534;6.378;2024-01-10T13:37:05;19.85;;;8.65;;
53775;SDS011;44276;49.534;6.378;2024-01-10T13:39:34;19.33;;;9.07;;
53775;SDS011;44276;49.534;6.378;2024-01-10T13:42:02;16.60;;;8.55;;
53775;SDS011;44276;49.534;6.378;2024-01-10T13:44:31;18.92;;;9.48;;
53775;SDS011;44276;49.534;6.378;2024-01-10T13:46:59;17.50;;;8.65;;
53775;SDS011;44276;49.534;6.378;2024-01-10T13:49:31;20.50;;;10.15;;
53775;SDS011;44276;49.534;6.378;2024-01-10T13:51:59;24.33;;;10.90;;
53775;SDS011;44276;49.534;6.378;2024-01-10T13:54:28;22.58;;;8.48;;
53775;SDS011;44276;49.534;6.378;2024-01-10T13:56:56;24.83;;;10.38;;
53775;SDS011;44276;49.534;6.378;2024-01-10T13:59:24;22.23;;;10.45;;
53775;SDS011;44276;49.534;6.378;2024-01-10T14:01:53;22.92;;;10.15;;
53775;SDS011;44276;49.534;6.378;2024-01-10T14:04:21;36.97;;;14.48;;
53775;SDS011;44276;49.534;6.378;2024-01-10T14:06:51;23.88;;;12.40;;
53775;SDS011;44276;49.534;6.378;2024-01-10T14:09:19;21.70;;;11.25;;
53775;SDS011;44276;49.534;6.378;2024-01-10T14:11:47;21.77;;;10.38;;
53775;SDS011;44276;49.534;6.378;2024-01-10T14:14:16;22.30;;;10.23;;
53775;SDS011;44276;49.534;6.378;2024-01-10T14:16:48;17.40;;;8.70;;
53775;SDS011;44276;49.534;6.378;2024-01-10T14:19:17;21.42;;;10.70;;
53775;SDS011;44276;49.534;6.378;2024-01-10T14:21:46;26.45;;;11.85;;
53775;SDS011;44276;49.534;6.378;2024-01-10T14:24:15;22.23;;;9.05;;
53775;SDS011;44276;49.534;6.378;2024-01-10T14:26:44;22.30;;;7.88;;
53775;SDS011;44276;49.534;6.378;2024-01-10T14:29:12;22.13;;;7.63;;
53775;SDS011;44276;49.534;6.378;2024-01-10T14:31:40;18.85;;;7.88;;
53775;SDS011;44276;49.534;6.378;2024-01-10T14:34:28;18.67;;;9.07;;
53775;SDS011;44276;49.534;6.378;2024-01-10T14:36:57;21.30;;;9.02;;
53775;SDS011;44276;49.534;6.378;2024-01-10T14:39:27;20.25;;;9.13;;
53775;SDS011;44276;49.534;6.378;2024-01-10T14:41:55;19.40;;;9.18;;
53775;SDS011;44276;49.534;6.378;2024-01-10T14:44:24;16.48;;;7.78;;
53775;SDS011;44276;49.534;6.378;2024-01-10T14:46:52;20.60;;;9.85;;
53775;SDS011;44276;49.534;6.378;2024-01-10T14:49:32;23.88;;;11.48;;
53775;SDS011;44276;49.534;6.378;2024-01-10T14:52:00;18.35;;;10.32;;
53775;SDS011;44276;49.534;6.378;2024-01-10T14:54:31;28.88;;;11.57;;
53775;SDS011;44276;49.534;6.378;2024-01-10T14:56:59;27.67;;;11.95;;